Westrac — WTH4325 — position and weather

sailwx.info

Track history (hours):
 
Tides and Currents Weather Stations Pressure Air Temp Water Temp Dewpoint Dewpoint Depression Visibility Wind Speed Wind Dir Waves Ship Positions

Westrac

Owner: WESTERN TOWBOAT CO, SEATTLE, WA. More information available from US FCC via Universal Licensing System and Coast Guard Vessel Documentation Center.

Last reported at 2017-Aug-16 21:30 UTC. Time now 2017-Aug-16 21:49 UTC.
Position N 47°35' W 122°22'.

Length 23 m; draft 5 m.

Type: Tug. MMSI: 366993010.

Date/timePositionNaut miles runAvg speedWind from/ knotsBaromVisibWave heightAir tempDewpointWater temp
2017-Aug-16 21:30N 47°35' W 122°22'0 0.0
2017-Aug-16 21:00N 47°35' W 122°22'0 0.0
2017-Aug-16 20:30N 47°35' W 122°22'0 0.0
2017-Aug-16 20:00N 47°35' W 122°22'0 0.0
2017-Aug-16 19:30N 47°35' W 122°22'0 0.0
2017-Aug-16 19:00N 47°35' W 122°22'0 0.0
2017-Aug-16 18:30N 47°35' W 122°22'0 0.0
2017-Aug-16 18:00N 47°35' W 122°22'0 0.5
2017-Aug-16 17:30N 47°35' W 122°21'0 0.0
2017-Aug-16 17:00N 47°35' W 122°21'0 0.0
2017-Aug-16 16:30N 47°35' W 122°21'0 0.0
2017-Aug-16 16:00N 47°35' W 122°21'0 0.0
2017-Aug-16 15:30N 47°35' W 122°21'0 0.4
2017-Aug-16 15:00N 47°35' W 122°21'2 3.7
2017-Aug-16 14:30N 47°34' W 122°21'0 0.8
2017-Aug-16 14:00N 47°34' W 122°21'0 0.5
2017-Aug-16 13:30N 47°34' W 122°21'0 0.0
2017-Aug-16 13:00N 47°34' W 122°21'0 0.0
2017-Aug-16 12:30N 47°34' W 122°21'0 0.0
2017-Aug-16 12:00N 47°34' W 122°21'0 0.0
2017-Aug-16 11:30N 47°34' W 122°21'0 0.0
2017-Aug-16 11:00N 47°34' W 122°21'0 0.0
2017-Aug-16 10:30N 47°34' W 122°21'0 0.1
2017-Aug-16 10:00N 47°34' W 122°21'1 1.1
2017-Aug-16 09:30N 47°34' W 122°21'0 0.0
2017-Aug-16 09:00N 47°34' W 122°21'1 0.0
2017-Aug-15 16:16N 47°34' W 122°21'1 5.7
2017-Aug-15 16:00N 47°33' W 122°20'1 2.8
2017-Aug-15 15:30N 47°34' W 122°21'1 2.7
2017-Aug-15 15:00N 47°35' W 122°22'3 5.6
2017-Aug-15 14:30N 47°33' W 122°20'1 2.5
2017-Aug-15 14:00N 47°34' W 122°21'0 0.0
2017-Aug-15 01:52N 47°34' W 122°21'1 3.4
2017-Aug-15 01:30N 47°35' W 122°21'1 2.6
2017-Aug-15 01:01N 47°34' W 122°21'0 0.2
2017-Aug-15 00:31N 47°34' W 122°21'0 0.0
2017-Aug-15 00:01N 47°34' W 122°21'0 0.0
2017-Aug-14 23:30N 47°34' W 122°21'0 0.0
2017-Aug-14 23:00N 47°34' W 122°21'0 0.0
2017-Aug-14 22:31N 47°34' W 122°21'0 0.0
2017-Aug-14 22:01N 47°34' W 122°21'0 0.0
2017-Aug-14 21:31N 47°34' W 122°21'0 0.0
2017-Aug-14 14:21N 47°34' W 122°21'1 3.6
2017-Aug-14 14:01N 47°35' W 122°21'0 0.3
2017-Aug-14 13:31N 47°35' W 122°21'0 0.3
2017-Aug-14 13:00N 47°35' W 122°21'1 2.0
2017-Aug-14 12:31N 47°36' W 122°23'2 4.2
2017-Aug-14 12:01N 47°34' W 122°21'0 0.5
2017-Aug-14 11:31N 47°34' W 122°21'0 0.0
2017-Aug-13 14:53N 47°34' W 122°21'1 1.6
2017-Aug-13 14:31N 47°34' W 122°21'1 2.4
2017-Aug-13 14:01N 47°35' W 122°22'1 1.5
2017-Aug-13 13:31N 47°35' W 122°21'0 0.3
2017-Aug-13 13:00N 47°35' W 122°21'1 0.2
2017-Aug-13 04:57N 47°34' W 122°21'1 1.5
2017-Aug-13 04:30N 47°33' W 122°21'3 5.3
2017-Aug-13 04:01N 47°36' W 122°22'1 1.2
2017-Aug-13 03:30N 47°35' W 122°22'0 0.8
2017-Aug-13 03:00N 47°35' W 122°21'1 1.8
2017-Aug-13 02:30N 47°36' W 122°22'1 2.7
2017-Aug-13 02:00N 47°35' W 122°22'1 0.0
2017-Aug-12 09:21N 47°34' W 122°21'2 4.5
2017-Aug-12 09:00N 47°35' W 122°22'0 0.7
2017-Aug-12 08:30N 47°36' W 122°22'0 0.7
2017-Aug-12 08:00N 47°35' W 122°22'0 0.1
2017-Aug-12 07:30N 47°35' W 122°22'0 0.0
2017-Aug-12 07:00N 47°35' W 122°22'0 0.1
2017-Aug-12 06:30N 47°35' W 122°22'2 4.5
2017-Aug-12 06:00N 47°33' W 122°21'0 0.4
2017-Aug-12 05:30N 47°33' W 122°21'2 4.9
2017-Aug-12 05:00N 47°35' W 122°22'1 2.6
2017-Aug-12 04:30N 47°34' W 122°21'0 0.3
2017-Aug-12 04:00N 47°34' W 122°21'1 2.9
2017-Aug-12 03:30N 47°35' W 122°22'3 5.3
2017-Aug-12 03:00N 47°33' W 122°20'1 1.2
2017-Aug-12 02:30N 47°34' W 122°21'2 3.9
2017-Aug-12 02:00N 47°35' W 122°21'0 0.2
2017-Aug-12 01:30N 47°35' W 122°21'1 1.7
2017-Aug-12 01:00N 47°36' W 122°22'1 1.3
2017-Aug-12 00:30N 47°36' W 122°23'2 4.4
2017-Aug-12 00:00N 47°34' W 122°21'0 0.0
2017-Aug-11 03:15N 47°34' W 122°21'1 6.1
2017-Aug-11 03:01N 47°33' W 122°20'2 3.6
2017-Aug-11 02:30N 47°34' W 122°21'1 1.9
2017-Aug-11 02:01N 47°35' W 122°21'1 2.0
2017-Aug-11 01:30N 47°34' W 122°21'2 3.0
2017-Aug-11 01:00N 47°36' W 122°22'3 5.0
2017-Aug-11 00:30N 47°33' W 122°21'2 4.3
2017-Aug-11 00:00N 47°35' W 122°21'2 3.7
2017-Aug-10 23:30N 47°34' W 122°21'1 2.1
2017-Aug-10 23:00N 47°33' W 122°20'0 0.0
2017-Aug-10 22:30N 47°33' W 122°20'0 0.5
2017-Aug-10 22:00N 47°32' W 122°20'0 0.5
2017-Aug-10 21:30N 47°33' W 122°20'0 0.2
2017-Aug-10 21:00N 47°33' W 122°20'1 2.9
2017-Aug-10 20:30N 47°34' W 122°21'0 0.0
2017-Aug-10 20:00N 47°34' W 122°21'0 0.0
2017-Aug-10 19:30N 47°34' W 122°21'0 0.0
2017-Aug-10 19:00N 47°34' W 122°21'0 0.0
2017-Aug-10 18:30N 47°34' W 122°21'1 2.4
2017-Aug-10 18:00N 47°35' W 122°21'0 0.7
2017-Aug-10 17:30N 47°35' W 122°21'1 0.1
2017-Aug-10 03:21N 47°34' W 122°21'1 4.3
2017-Aug-10 03:00N 47°35' W 122°22'1 2.4
2017-Aug-10 02:30N 47°34' W 122°21'1 2.2
2017-Aug-10 02:00N 47°33' W 122°21'0 0.2
2017-Aug-10 01:31N 47°33' W 122°21'1 2.0
2017-Aug-10 01:00N 47°34' W 122°21'1 2.3
2017-Aug-10 00:30N 47°33' W 122°20'0 0.0
2017-Aug-10 00:00N 47°33' W 122°20'1 2.2
2017-Aug-09 23:30N 47°34' W 122°21'0 0.0
2017-Aug-09 23:01N 47°34' W 122°21'0 0.0
2017-Aug-09 22:30N 47°34' W 122°21'0 0.0
2017-Aug-09 22:00N 47°34' W 122°21'0 0.0
2017-Aug-09 21:30N 47°34' W 122°21'0 0.0
2017-Aug-09 21:00N 47°34' W 122°21'0 0.0
2017-Aug-09 20:30N 47°34' W 122°21'1 0.4
2017-Aug-09 19:03N 47°34' W 122°21'0 8.8
2017-Aug-09 19:00N 47°33' W 122°20'1 1.9
2017-Aug-09 18:30N 47°34' W 122°21'1 2.6
2017-Aug-09 18:00N 47°35' W 122°21'1 1.6
2017-Aug-09 17:30N 47°35' W 122°22'2 3.3
2017-Aug-09 16:59N 47°33' W 122°20'3 5.5
2017-Aug-09 16:30N 47°36' W 122°21'0 0.6
2017-Aug-09 16:00N 47°35' W 122°20'0 0.0
2017-Aug-09 15:15N 47°35' W 122°20'0 0.3
2017-Aug-09 14:59N 47°35' W 122°21'1 0.2
2017-Aug-09 09:25N 47°34' W 122°21'0 0.0
2017-Aug-09 04:39N 47°34' W 122°21'0 2.4
2017-Aug-09 04:30N 47°34' W 122°21'1 2.0
2017-Aug-09 03:59N 47°33' W 122°21'0 0.0
2017-Aug-09 02:06N 47°33' W 122°21'0 0.0
2017-Aug-09 02:00N 47°33' W 122°21'0 0.0
2017-Aug-09 01:31N 47°33' W 122°21'0 0.0
2017-Aug-09 01:00N 47°33' W 122°21'2 4.0
2017-Aug-09 00:30N 47°35' W 122°21'1 2.4
2017-Aug-09 00:00N 47°34' W 122°21'0 0.0
2017-Aug-08 23:30N 47°34' W 122°21'0 0.0
2017-Aug-08 23:01N 47°34' W 122°21'0 0.0
2017-Aug-08 22:30N 47°34' W 122°21'0 0.0
2017-Aug-08 22:00N 47°34' W 122°21'0 0.0
2017-Aug-08 21:30N 47°34' W 122°21'1 1.7
2017-Aug-08 21:00N 47°33' W 122°21'0 0.1
2017-Aug-08 20:30N 47°33' W 122°21'0 0.9
2017-Aug-08 20:00N 47°33' W 122°20'0 0.9
2017-Aug-08 19:31N 47°33' W 122°21'2 4.3
2017-Aug-08 19:00N 47°35' W 122°21'1 2.1
2017-Aug-08 18:23N 47°34' W 122°21'0 0.0
2017-Aug-08 18:00N 47°34' W 122°21'1 2.7
2017-Aug-08 17:30N 47°35' W 122°22'2 4.2
2017-Aug-08 17:00N 47°33' W 122°21'1 1.5
2017-Aug-08 16:30N 47°33' W 122°20'3 5.9
2017-Aug-08 16:00N 47°35' W 122°22'1 2.9
2017-Aug-08 15:30N 47°34' W 122°21'1 2.6
2017-Aug-08 15:00N 47°33' W 122°20'2 3.6
2017-Aug-08 14:30N 47°34' W 122°21'1 2.6
2017-Aug-08 14:00N 47°36' W 122°22'1 1.1
2017-Aug-08 13:30N 47°35' W 122°21'1 2.7
2017-Aug-08 13:00N 47°34' W 122°21'0 0.2
2017-Aug-08 12:30N 47°34' W 122°21'0 0.0
2017-Aug-07 15:07N 47°34' W 122°21'0 0.0
2017-Aug-07 15:00N 47°34' W 122°21'1 2.7
2017-Aug-07 14:31N 47°33' W 122°20'2 4.5
2017-Aug-07 14:00N 47°35' W 122°22'2 3.9
2017-Aug-07 13:30N 47°33' W 122°20'1 3.0
2017-Aug-07 13:00N 47°34' W 122°21'0 0.9
2017-Aug-07 12:31N 47°34' W 122°21'  
Track history (hours):
 
Tides and Currents Weather Stations Pressure Air Temp Water Temp Dewpoint Dewpoint Depression Visibility Wind Speed Wind Dir Waves Ship Positions

Westrac

Owner: WESTERN TOWBOAT CO, SEATTLE, WA. More information available from US FCC via Universal Licensing System and Coast Guard Vessel Documentation Center.

Last reported at 2017-Aug-16 21:30 UTC. Time now 2017-Aug-16 21:49 UTC.
Position N 47°35' W 122°22'.

Length 23 m; draft 5 m.

Type: Tug. MMSI: 366993010.

Date/timePositionNaut miles runAvg speedWind from/ knotsBaromVisibWave heightAir tempDewpointWater temp
2017-Aug-16 21:30N 47°35' W 122°22'0 0.0
2017-Aug-16 21:00N 47°35' W 122°22'0 0.0
2017-Aug-16 20:30N 47°35' W 122°22'0 0.0
2017-Aug-16 20:00N 47°35' W 122°22'0 0.0
2017-Aug-16 19:30N 47°35' W 122°22'0 0.0
2017-Aug-16 19:00N 47°35' W 122°22'0 0.0
2017-Aug-16 18:30N 47°35' W 122°22'0 0.0
2017-Aug-16 18:00N 47°35' W 122°22'0 0.5
2017-Aug-16 17:30N 47°35' W 122°21'0 0.0
2017-Aug-16 17:00N 47°35' W 122°21'0 0.0
2017-Aug-16 16:30N 47°35' W 122°21'0 0.0
2017-Aug-16 16:00N 47°35' W 122°21'0 0.0
2017-Aug-16 15:30N 47°35' W 122°21'0 0.4
2017-Aug-16 15:00N 47°35' W 122°21'2 3.7
2017-Aug-16 14:30N 47°34' W 122°21'0 0.8
2017-Aug-16 14:00N 47°34' W 122°21'0 0.5
2017-Aug-16 13:30N 47°34' W 122°21'0 0.0
2017-Aug-16 13:00N 47°34' W 122°21'0 0.0
2017-Aug-16 12:30N 47°34' W 122°21'0 0.0
2017-Aug-16 12:00N 47°34' W 122°21'0 0.0
2017-Aug-16 11:30N 47°34' W 122°21'0 0.0
2017-Aug-16 11:00N 47°34' W 122°21'0 0.0
2017-Aug-16 10:30N 47°34' W 122°21'0 0.1
2017-Aug-16 10:00N 47°34' W 122°21'1 1.1
2017-Aug-16 09:30N 47°34' W 122°21'0 0.0
2017-Aug-16 09:00N 47°34' W 122°21'1 0.0
2017-Aug-15 16:16N 47°34' W 122°21'1 5.7
2017-Aug-15 16:00N 47°33' W 122°20'1 2.8
2017-Aug-15 15:30N 47°34' W 122°21'1 2.7
2017-Aug-15 15:00N 47°35' W 122°22'3 5.6
2017-Aug-15 14:30N 47°33' W 122°20'1 2.5
2017-Aug-15 14:00N 47°34' W 122°21'0 0.0
2017-Aug-15 01:52N 47°34' W 122°21'1 3.4
2017-Aug-15 01:30N 47°35' W 122°21'1 2.6
2017-Aug-15 01:01N 47°34' W 122°21'0 0.2
2017-Aug-15 00:31N 47°34' W 122°21'0 0.0
2017-Aug-15 00:01N 47°34' W 122°21'0 0.0
2017-Aug-14 23:30N 47°34' W 122°21'0 0.0
2017-Aug-14 23:00N 47°34' W 122°21'0 0.0
2017-Aug-14 22:31N 47°34' W 122°21'0 0.0
2017-Aug-14 22:01N 47°34' W 122°21'0 0.0
2017-Aug-14 21:31N 47°34' W 122°21'0 0.0
2017-Aug-14 14:21N 47°34' W 122°21'1 3.6
2017-Aug-14 14:01N 47°35' W 122°21'0 0.3
2017-Aug-14 13:31N 47°35' W 122°21'0 0.3
2017-Aug-14 13:00N 47°35' W 122°21'1 2.0
2017-Aug-14 12:31N 47°36' W 122°23'2 4.2
2017-Aug-14 12:01N 47°34' W 122°21'0 0.5
2017-Aug-14 11:31N 47°34' W 122°21'0 0.0
2017-Aug-13 14:53N 47°34' W 122°21'1 1.6
2017-Aug-13 14:31N 47°34' W 122°21'1 2.4
2017-Aug-13 14:01N 47°35' W 122°22'1 1.5
2017-Aug-13 13:31N 47°35' W 122°21'0 0.3
2017-Aug-13 13:00N 47°35' W 122°21'1 0.2
2017-Aug-13 04:57N 47°34' W 122°21'1 1.5
2017-Aug-13 04:30N 47°33' W 122°21'3 5.3
2017-Aug-13 04:01N 47°36' W 122°22'1 1.2
2017-Aug-13 03:30N 47°35' W 122°22'0 0.8
2017-Aug-13 03:00N 47°35' W 122°21'1 1.8
2017-Aug-13 02:30N 47°36' W 122°22'1 2.7
2017-Aug-13 02:00N 47°35' W 122°22'1 0.0
2017-Aug-12 09:21N 47°34' W 122°21'2 4.5
2017-Aug-12 09:00N 47°35' W 122°22'0 0.7
2017-Aug-12 08:30N 47°36' W 122°22'0 0.7
2017-Aug-12 08:00N 47°35' W 122°22'0 0.1
2017-Aug-12 07:30N 47°35' W 122°22'0 0.0
2017-Aug-12 07:00N 47°35' W 122°22'0 0.1
2017-Aug-12 06:30N 47°35' W 122°22'2 4.5
2017-Aug-12 06:00N 47°33' W 122°21'0 0.4
2017-Aug-12 05:30N 47°33' W 122°21'2 4.9
2017-Aug-12 05:00N 47°35' W 122°22'1 2.6
2017-Aug-12 04:30N 47°34' W 122°21'0 0.3
2017-Aug-12 04:00N 47°34' W 122°21'1 2.9
2017-Aug-12 03:30N 47°35' W 122°22'3 5.3
2017-Aug-12 03:00N 47°33' W 122°20'1 1.2
2017-Aug-12 02:30N 47°34' W 122°21'2 3.9
2017-Aug-12 02:00N 47°35' W 122°21'0 0.2
2017-Aug-12 01:30N 47°35' W 122°21'1 1.7
2017-Aug-12 01:00N 47°36' W 122°22'1 1.3
2017-Aug-12 00:30N 47°36' W 122°23'2 4.4
2017-Aug-12 00:00N 47°34' W 122°21'0 0.0
2017-Aug-11 03:15N 47°34' W 122°21'1 6.1
2017-Aug-11 03:01N 47°33' W 122°20'2 3.6
2017-Aug-11 02:30N 47°34' W 122°21'1 1.9
2017-Aug-11 02:01N 47°35' W 122°21'1 2.0
2017-Aug-11 01:30N 47°34' W 122°21'2 3.0
2017-Aug-11 01:00N 47°36' W 122°22'3 5.0
2017-Aug-11 00:30N 47°33' W 122°21'2 4.3
2017-Aug-11 00:00N 47°35' W 122°21'2 3.7
2017-Aug-10 23:30N 47°34' W 122°21'1 2.1
2017-Aug-10 23:00N 47°33' W 122°20'0 0.0
2017-Aug-10 22:30N 47°33' W 122°20'0 0.5
2017-Aug-10 22:00N 47°32' W 122°20'0 0.5
2017-Aug-10 21:30N 47°33' W 122°20'0 0.2
2017-Aug-10 21:00N 47°33' W 122°20'1 2.9
2017-Aug-10 20:30N 47°34' W 122°21'0 0.0
2017-Aug-10 20:00N 47°34' W 122°21'0 0.0
2017-Aug-10 19:30N 47°34' W 122°21'0 0.0
2017-Aug-10 19:00N 47°34' W 122°21'0 0.0
2017-Aug-10 18:30N 47°34' W 122°21'1 2.4
2017-Aug-10 18:00N 47°35' W 122°21'0 0.7
2017-Aug-10 17:30N 47°35' W 122°21'1 0.1
2017-Aug-10 03:21N 47°34' W 122°21'1 4.3
2017-Aug-10 03:00N 47°35' W 122°22'1 2.4
2017-Aug-10 02:30N 47°34' W 122°21'1 2.2
2017-Aug-10 02:00N 47°33' W 122°21'0 0.2
2017-Aug-10 01:31N 47°33' W 122°21'1 2.0
2017-Aug-10 01:00N 47°34' W 122°21'1 2.3
2017-Aug-10 00:30N 47°33' W 122°20'0 0.0
2017-Aug-10 00:00N 47°33' W 122°20'1 2.2
2017-Aug-09 23:30N 47°34' W 122°21'0 0.0
2017-Aug-09 23:01N 47°34' W 122°21'0 0.0
2017-Aug-09 22:30N 47°34' W 122°21'0 0.0
2017-Aug-09 22:00N 47°34' W 122°21'0 0.0
2017-Aug-09 21:30N 47°34' W 122°21'0 0.0
2017-Aug-09 21:00N 47°34' W 122°21'0 0.0
2017-Aug-09 20:30N 47°34' W 122°21'1 0.4
2017-Aug-09 19:03N 47°34' W 122°21'0 8.8
2017-Aug-09 19:00N 47°33' W 122°20'1 1.9
2017-Aug-09 18:30N 47°34' W 122°21'1 2.6
2017-Aug-09 18:00N 47°35' W 122°21'1 1.6
2017-Aug-09 17:30N 47°35' W 122°22'2 3.3
2017-Aug-09 16:59N 47°33' W 122°20'3 5.5
2017-Aug-09 16:30N 47°36' W 122°21'0 0.6
2017-Aug-09 16:00N 47°35' W 122°20'0 0.0
2017-Aug-09 15:15N 47°35' W 122°20'0 0.3
2017-Aug-09 14:59N 47°35' W 122°21'1 0.2
2017-Aug-09 09:25N 47°34' W 122°21'0 0.0
2017-Aug-09 04:39N 47°34' W 122°21'0 2.4
2017-Aug-09 04:30N 47°34' W 122°21'1 2.0
2017-Aug-09 03:59N 47°33' W 122°21'0 0.0
2017-Aug-09 02:06N 47°33' W 122°21'0 0.0
2017-Aug-09 02:00N 47°33' W 122°21'0 0.0
2017-Aug-09 01:31N 47°33' W 122°21'0 0.0
2017-Aug-09 01:00N 47°33' W 122°21'2 4.0
2017-Aug-09 00:30N 47°35' W 122°21'1 2.4
2017-Aug-09 00:00N 47°34' W 122°21'0 0.0
2017-Aug-08 23:30N 47°34' W 122°21'0 0.0
2017-Aug-08 23:01N 47°34' W 122°21'0 0.0
2017-Aug-08 22:30N 47°34' W 122°21'0 0.0
2017-Aug-08 22:00N 47°34' W 122°21'0 0.0
2017-Aug-08 21:30N 47°34' W 122°21'1 1.7
2017-Aug-08 21:00N 47°33' W 122°21'0 0.1
2017-Aug-08 20:30N 47°33' W 122°21'0 0.9
2017-Aug-08 20:00N 47°33' W 122°20'0 0.9
2017-Aug-08 19:31N 47°33' W 122°21'2 4.3
2017-Aug-08 19:00N 47°35' W 122°21'1 2.1
2017-Aug-08 18:23N 47°34' W 122°21'0 0.0
2017-Aug-08 18:00N 47°34' W 122°21'1 2.7
2017-Aug-08 17:30N 47°35' W 122°22'2 4.2
2017-Aug-08 17:00N 47°33' W 122°21'1 1.5
2017-Aug-08 16:30N 47°33' W 122°20'3 5.9
2017-Aug-08 16:00N 47°35' W 122°22'1 2.9
2017-Aug-08 15:30N 47°34' W 122°21'1 2.6
2017-Aug-08 15:00N 47°33' W 122°20'2 3.6
2017-Aug-08 14:30N 47°34' W 122°21'1 2.6
2017-Aug-08 14:00N 47°36' W 122°22'1 1.1
2017-Aug-08 13:30N 47°35' W 122°21'1 2.7
2017-Aug-08 13:00N 47°34' W 122°21'0 0.2
2017-Aug-08 12:30N 47°34' W 122°21'0 0.0
2017-Aug-07 15:07N 47°34' W 122°21'0 0.0
2017-Aug-07 15:00N 47°34' W 122°21'1 2.7
2017-Aug-07 14:31N 47°33' W 122°20'2 4.5
2017-Aug-07 14:00N 47°35' W 122°22'2 3.9
2017-Aug-07 13:30N 47°33' W 122°20'1 3.0
2017-Aug-07 13:00N 47°34' W 122°21'0 0.9
2017-Aug-07 12:31N 47°34' W 122°21'  

Dump ship's entire track history